createdAt,value
2023-01-26T00:00:00.493Z,-1.1
2023-01-26T00:01:01.066Z,-1.1
2023-01-26T00:02:00.658Z,-1.1
2023-01-26T00:03:01.314Z,-1
2023-01-26T00:04:00.971Z,-1
2023-01-26T00:05:00.474Z,-1.1
2023-01-26T00:06:01.052Z,-1
2023-01-26T00:07:00.649Z,-1
2023-01-26T00:08:01.244Z,-1
2023-01-26T00:09:00.834Z,-1
2023-01-26T00:10:00.440Z,-0.9
2023-01-26T00:11:01.002Z,-1
2023-01-26T00:12:00.594Z,-1
2023-01-26T00:13:01.189Z,-1
2023-01-26T00:14:00.779Z,-1
2023-01-26T00:15:00.364Z,-1
2023-01-26T00:16:00.986Z,-1
2023-01-26T00:17:00.589Z,-1
2023-01-26T00:18:01.170Z,-0.9
2023-01-26T00:19:00.762Z,-0.9
2023-01-26T00:20:00.345Z,-1
2023-01-26T00:21:00.959Z,-1
2023-01-26T00:22:00.546Z,-1
2023-01-26T00:23:01.140Z,-1.1
2023-01-26T00:24:00.947Z,-1.1
2023-01-26T00:25:00.340Z,-1.1
2023-01-26T00:26:00.930Z,-1.1
2023-01-26T00:27:00.522Z,-1.1
2023-01-26T00:28:01.122Z,-1
2023-01-26T00:29:00.717Z,-1
2023-01-26T00:30:01.311Z,-1.1
2023-01-26T00:31:00.934Z,-1.1
2023-01-26T00:32:00.523Z,-1.1
2023-01-26T00:33:01.098Z,-1.1
2023-01-26T00:34:00.695Z,-1.1
2023-01-26T00:35:00.372Z,-1.1
2023-01-26T00:36:00.842Z,-1
2023-01-26T00:37:00.434Z,-1
2023-01-26T00:38:01.021Z,-1
2023-01-26T00:39:00.613Z,-1
2023-01-26T00:40:01.196Z,-1.1
2023-01-26T00:41:00.819Z,-1.1
2023-01-26T00:42:00.386Z,-1.1
2023-01-26T00:43:00.947Z,-1.1
2023-01-26T00:44:00.541Z,-1.2
2023-01-26T00:45:01.154Z,-1.2
2023-01-26T00:46:00.773Z,-1.2
2023-01-26T00:47:00.334Z,-1.1
2023-01-26T00:48:00.902Z,-1.1
2023-01-26T00:49:00.499Z,-1.1
2023-01-26T00:50:01.074Z,-1.1
2023-01-26T00:51:00.695Z,-1.2
2023-01-26T00:52:01.237Z,-1.2
2023-01-26T00:53:00.826Z,-1.1
2023-01-26T00:54:00.425Z,-1.1
2023-01-26T00:55:01.008Z,-1.1
2023-01-26T00:56:00.618Z,-1.1
2023-01-26T00:57:01.170Z,-1
2023-01-26T00:58:00.824Z,-1.1
2023-01-26T00:59:00.342Z,-1
2023-01-26T01:00:00.920Z,-1.1
2023-01-26T01:01:00.544Z,-1.1
2023-01-26T01:02:01.201Z,-1.1
2023-01-26T01:03:00.770Z,-1.1
2023-01-26T01:04:00.338Z,-1.1
2023-01-26T01:05:00.915Z,-1.1
2023-01-26T01:06:00.508Z,-1.1
2023-01-26T01:07:01.076Z,-1.1
2023-01-26T01:08:00.707Z,-1.1
2023-01-26T01:09:01.233Z,-1.1
2023-01-26T01:10:00.820Z,-1.1
2023-01-26T01:11:00.419Z,-1.2
2023-01-26T01:12:01.027Z,-1.1
2023-01-26T01:13:00.677Z,-1.1
2023-01-26T01:14:01.292Z,-1.1
2023-01-26T01:15:00.880Z,-1.1
2023-01-26T01:16:00.493Z,-1.1
2023-01-26T01:17:01.055Z,-1.1
2023-01-26T01:18:00.645Z,-1.1
2023-01-26T01:19:01.255Z,-1.1
2023-01-26T01:20:00.844Z,-1.2
2023-01-26T01:21:00.438Z,-1.1
2023-01-26T01:22:01.012Z,-1.1
2023-01-26T01:23:00.614Z,-1.1
2023-01-26T01:24:01.234Z,-1.1
2023-01-26T01:25:00.832Z,-1.1
2023-01-26T01:26:00.423Z,-1.1
2023-01-26T01:27:01.003Z,-1.1
2023-01-26T01:28:00.589Z,-1.1
2023-01-26T01:29:01.183Z,-1.1
2023-01-26T01:30:00.817Z,-1.2
2023-01-26T01:31:00.438Z,-1.2
2023-01-26T01:32:01.044Z,-1.1
2023-01-26T01:33:00.598Z,-1.1
2023-01-26T01:34:01.160Z,-1.2
2023-01-26T01:35:00.812Z,-1.3
2023-01-26T01:36:00.358Z,-1.3
2023-01-26T01:37:00.917Z,-1.3
2023-01-26T01:38:00.511Z,-1.3
2023-01-26T01:39:01.089Z,-1.3
2023-01-26T01:40:00.709Z,-1.3
2023-01-26T01:41:01.292Z,-1.3
2023-01-26T01:42:00.885Z,-1.2
2023-01-26T01:43:00.500Z,-1.2
2023-01-26T01:44:01.069Z,-1.1
2023-01-26T01:45:00.672Z,-1.1
2023-01-26T01:46:01.288Z,-1.1
2023-01-26T01:47:00.921Z,-1.1
2023-01-26T01:48:00.487Z,-1.1
2023-01-26T01:49:01.062Z,-1.1
2023-01-26T01:50:00.675Z,-1.1
2023-01-26T01:51:01.235Z,-1
2023-01-26T01:52:00.833Z,-1
2023-01-26T01:53:00.426Z,-1.1
2023-01-26T01:54:01.004Z,-1.2
2023-01-26T01:55:00.614Z,-1.1
2023-01-26T01:56:01.200Z,-1.1
2023-01-26T01:57:00.789Z,-1.1
2023-01-26T01:58:00.378Z,-1.1
2023-01-26T01:59:00.964Z,-1.2
2023-01-26T02:00:00.568Z,-1.1
2023-01-26T02:01:01.207Z,-1.2
2023-01-26T02:02:01.000Z,-1.2
2023-01-26T02:03:00.388Z,-1.2
2023-01-26T02:04:00.962Z,-1.2
2023-01-26T02:05:00.555Z,-1.2
2023-01-26T02:06:01.143Z,-1.2
2023-01-26T02:07:00.759Z,-1.2
2023-01-26T02:08:00.312Z,-1.2
2023-01-26T02:09:00.910Z,-1.2
2023-01-26T02:10:00.505Z,-1.3
2023-01-26T02:11:01.074Z,-1.3
2023-01-26T02:12:00.683Z,-1.3
2023-01-26T02:13:01.237Z,-1.2
2023-01-26T02:14:00.828Z,-1.2
2023-01-26T02:15:00.411Z,-1.2
2023-01-26T02:16:01.061Z,-1.2
2023-01-26T02:17:00.679Z,-1.2
2023-01-26T02:18:01.256Z,-1.3
2023-01-26T02:19:00.854Z,-1.2
2023-01-26T02:20:00.442Z,-1.3
2023-01-26T02:21:01.027Z,-1.3
2023-01-26T02:22:00.631Z,-1.3
2023-01-26T02:23:01.186Z,-1.2
2023-01-26T02:24:00.828Z,-1.2
2023-01-26T02:25:00.372Z,-1.1
2023-01-26T02:26:00.957Z,-1.2
2023-01-26T02:27:00.549Z,-1.2
2023-01-26T02:28:01.141Z,-1.2
2023-01-26T02:29:00.726Z,-1.2
2023-01-26T02:30:01.317Z,-1.2
2023-01-26T02:31:01.012Z,-1.2
2023-01-26T02:32:00.531Z,-1.2
2023-01-26T02:33:01.133Z,-1.2
2023-01-26T02:34:00.769Z,-1.2
2023-01-26T02:35:01.357Z,-1.2
2023-01-26T02:36:01.055Z,-1.1
2023-01-26T02:37:00.518Z,-1.2
2023-01-26T02:38:01.125Z,-1.2
2023-01-26T02:39:00.777Z,-1.2
2023-01-26T02:40:00.327Z,-1.2
2023-01-26T02:41:00.883Z,-1.2
2023-01-26T02:42:00.474Z,-1.2
2023-01-26T02:43:01.055Z,-1.3
2023-01-26T02:44:00.645Z,-1.3
2023-01-26T02:45:01.239Z,-1.3
2023-01-26T02:46:00.908Z,-1.2
2023-01-26T02:47:00.455Z,-1.1
2023-01-26T02:48:01.038Z,-1.1
2023-01-26T02:49:00.627Z,-1.1
2023-01-26T02:50:01.256Z,-1.1
2023-01-26T02:51:00.862Z,-1.1
2023-01-26T02:52:00.435Z,-1.1
2023-01-26T02:53:01.014Z,-1.1
2023-01-26T02:54:00.618Z,-1.1
2023-01-26T02:55:01.213Z,-1.2
2023-01-26T02:56:00.804Z,-1.1
2023-01-26T02:57:00.400Z,-1.2
2023-01-26T02:58:00.980Z,-1.1
2023-01-26T02:59:00.588Z,-1.1
2023-01-26T03:00:01.172Z,-1.2
2023-01-26T03:01:00.840Z,-1.1
2023-01-26T03:02:00.371Z,-1.1
2023-01-26T03:03:00.948Z,-1.1
2023-01-26T03:04:00.542Z,-1
2023-01-26T03:05:01.122Z,-1
2023-01-26T03:06:00.753Z,-1
2023-01-26T03:07:01.305Z,-1
2023-01-26T03:08:00.913Z,-0.9
2023-01-26T03:09:00.522Z,-0.9
2023-01-26T03:10:01.108Z,-0.9
2023-01-26T03:11:00.722Z,-0.9
2023-01-26T03:12:01.275Z,-1
2023-01-26T03:13:00.863Z,-1
2023-01-26T03:14:00.449Z,-1
2023-01-26T03:15:01.035Z,-1
2023-01-26T03:16:00.719Z,-1
2023-01-26T03:17:01.200Z,-1.1
2023-01-26T03:18:00.801Z,-1
2023-01-26T03:19:00.375Z,-1
2023-01-26T03:20:00.965Z,-1
2023-01-26T03:21:00.583Z,-1
2023-01-26T03:22:01.160Z,-1
2023-01-26T03:23:00.749Z,-1
2023-01-26T03:24:00.351Z,-1
2023-01-26T03:25:00.902Z,-0.9
2023-01-26T03:26:00.513Z,-0.9
2023-01-26T03:27:01.095Z,-0.9
2023-01-26T03:28:00.695Z,-0.9
2023-01-26T03:29:01.265Z,-1
2023-01-26T03:30:00.857Z,-1
2023-01-26T03:31:00.513Z,-0.9
2023-01-26T03:32:01.034Z,-1
2023-01-26T03:33:00.621Z,-1
2023-01-26T03:34:01.209Z,-1
2023-01-26T03:35:00.798Z,-1
2023-01-26T03:36:00.444Z,-1
2023-01-26T03:37:00.957Z,-1
2023-01-26T03:38:00.575Z,-0.9
2023-01-26T03:39:01.144Z,-0.9
2023-01-26T03:40:00.738Z,-0.9
2023-01-26T03:41:00.355Z,-0.9
2023-01-26T03:42:00.909Z,-0.8
2023-01-26T03:43:00.497Z,-0.9
2023-01-26T03:44:01.085Z,-0.9
2023-01-26T03:45:00.685Z,-0.9
2023-01-26T03:46:01.277Z,-0.9
2023-01-26T03:47:00.889Z,-0.8
2023-01-26T03:48:00.488Z,-0.9
2023-01-26T03:49:01.061Z,-0.9
2023-01-26T03:50:00.647Z,-0.9
2023-01-26T03:51:01.252Z,-0.8
2023-01-26T03:52:00.857Z,-0.8
2023-01-26T03:53:00.444Z,-0.7
2023-01-26T03:54:01.054Z,-0.8
2023-01-26T03:55:00.648Z,-0.8
2023-01-26T03:56:01.250Z,-0.8
2023-01-26T03:57:00.837Z,-0.9
2023-01-26T03:58:00.435Z,-0.8
2023-01-26T03:59:01.012Z,-0.8
2023-01-26T04:00:00.633Z,-0.8
2023-01-26T04:01:01.260Z,-0.9
2023-01-26T04:02:00.887Z,-0.8
2023-01-26T04:03:00.457Z,-0.8
2023-01-26T04:04:01.003Z,-0.7
2023-01-26T04:05:00.590Z,-0.6
2023-01-26T04:06:15.958Z,-0.7
2023-01-26T04:07:00.750Z,-0.7
2023-01-26T04:08:00.364Z,-0.7
2023-01-26T04:09:00.933Z,-0.7
2023-01-26T04:10:00.558Z,-0.7
2023-01-26T04:11:01.106Z,-0.8
2023-01-26T04:12:00.731Z,-0.8
2023-01-26T04:13:01.297Z,-0.9
2023-01-26T04:14:00.899Z,-0.9
2023-01-26T04:15:00.505Z,-0.9
2023-01-26T04:16:01.131Z,-0.9
2023-01-26T04:17:00.727Z,-0.8
2023-01-26T04:18:01.340Z,-0.8
2023-01-26T04:19:00.950Z,-0.9
2023-01-26T04:20:00.527Z,-0.8
2023-01-26T04:21:01.123Z,-0.8
2023-01-26T04:22:00.717Z,-0.8
2023-01-26T04:23:00.323Z,-0.8
2023-01-26T04:24:00.928Z,-0.9
2023-01-26T04:25:00.527Z,-0.9
2023-01-26T04:26:01.121Z,-0.9
2023-01-26T04:27:00.710Z,-0.9
2023-01-26T04:28:01.294Z,-0.8
2023-01-26T04:29:00.904Z,-0.8
2023-01-26T04:30:00.495Z,-0.8
2023-01-26T04:31:01.070Z,-0.9
2023-01-26T04:32:00.687Z,-0.9
2023-01-26T04:33:01.274Z,-0.9
2023-01-26T04:34:00.886Z,-0.9
2023-01-26T04:35:00.496Z,-0.9
2023-01-26T04:36:01.062Z,-0.9
2023-01-26T04:37:00.711Z,-0.9
2023-01-26T04:38:01.239Z,-0.9
2023-01-26T04:39:00.843Z,-0.9
2023-01-26T04:40:00.477Z,-0.8
2023-01-26T04:41:01.045Z,-0.9
2023-01-26T04:42:00.657Z,-0.8
2023-01-26T04:43:01.208Z,-0.8
2023-01-26T04:44:00.846Z,-0.8
2023-01-26T04:45:00.412Z,-0.8
2023-01-26T04:46:00.991Z,-0.7
2023-01-26T04:47:00.583Z,-0.8
2023-01-26T04:48:01.179Z,-0.8
2023-01-26T04:49:00.770Z,-0.8
2023-01-26T04:50:00.374Z,-0.8
2023-01-26T04:51:00.935Z,-0.8
2023-01-26T04:52:00.522Z,-0.9
2023-01-26T04:53:01.122Z,-0.9
2023-01-26T04:54:00.770Z,-1
2023-01-26T04:55:00.399Z,-1
2023-01-26T04:56:00.966Z,-0.9
2023-01-26T04:57:00.588Z,-0.9
2023-01-26T04:58:02.107Z,-0.8
2023-01-26T04:59:01.179Z,-0.8
2023-01-26T05:00:00.410Z,-0.9
2023-01-26T05:01:01.007Z,-0.8
2023-01-26T05:02:00.601Z,-0.9
2023-01-26T05:03:01.190Z,-0.8
2023-01-26T05:04:00.857Z,-0.9
2023-01-26T05:05:00.379Z,-0.8
2023-01-26T05:06:00.941Z,-0.9
2023-01-26T05:07:00.533Z,-0.9
2023-01-26T05:08:01.114Z,-0.8
2023-01-26T05:09:00.707Z,-1
2023-01-26T05:10:01.303Z,-1
2023-01-26T05:11:00.901Z,-0.9
2023-01-26T05:12:00.522Z,-1
2023-01-26T05:13:01.087Z,-1
2023-01-26T05:14:00.706Z,-1
2023-01-26T05:15:01.297Z,-1
2023-01-26T05:16:00.886Z,-1
2023-01-26T05:17:01.821Z,-1
2023-01-26T05:18:00.488Z,-0.8
2023-01-26T05:19:01.072Z,-0.7
2023-01-26T05:20:01.288Z,-0.7
2023-01-26T05:21:00.880Z,-0.7
2023-01-26T05:22:00.465Z,-0.7
2023-01-26T05:23:01.074Z,-0.7
2023-01-26T05:24:00.708Z,-0.7
2023-01-26T05:25:01.250Z,-0.7
2023-01-26T05:26:00.838Z,-0.7
2023-01-26T05:27:00.430Z,-0.8
2023-01-26T05:28:01.025Z,-0.9
2023-01-26T05:29:00.621Z,-0.8
2023-01-26T05:30:01.264Z,-0.8
2023-01-26T05:31:00.852Z,-0.8
2023-01-26T05:32:00.548Z,-0.8
2023-01-26T05:33:01.030Z,-0.8
2023-01-26T05:34:00.629Z,-0.8
2023-01-26T05:35:01.235Z,-0.8
2023-01-26T05:36:00.826Z,-0.7
2023-01-26T05:37:00.418Z,-0.7
2023-01-26T05:38:01.042Z,-0.7
2023-01-26T05:39:00.641Z,-0.8
2023-01-26T05:40:01.239Z,-0.7
2023-01-26T05:41:00.854Z,-0.8
2023-01-26T05:42:00.443Z,-0.8
2023-01-26T05:43:01.016Z,-0.7
2023-01-26T05:44:00.604Z,-0.7
2023-01-26T05:45:01.183Z,-0.8
2023-01-26T05:46:00.873Z,-0.8
2023-01-26T05:47:00.365Z,-0.8
2023-01-26T05:48:00.950Z,-0.8
2023-01-26T05:49:00.542Z,-0.8
2023-01-26T05:50:01.124Z,-0.8
2023-01-26T05:51:03.007Z,-0.9
2023-01-26T05:52:00.370Z,-0.9
2023-01-26T05:53:00.869Z,-0.8
2023-01-26T05:54:00.458Z,-0.8
2023-01-26T05:55:01.031Z,-0.8
2023-01-26T05:56:00.623Z,-0.8
2023-01-26T05:57:01.232Z,-0.7
2023-01-26T05:58:00.848Z,-0.8
2023-01-26T05:59:00.401Z,-0.8
2023-01-26T06:00:00.975Z,-0.9
2023-01-26T06:01:00.568Z,-0.8
2023-01-26T06:02:01.207Z,-0.8
2023-01-26T06:03:00.831Z,-0.8
2023-01-26T06:04:00.402Z,-0.8
2023-01-26T06:05:00.974Z,-0.7
2023-01-26T06:06:00.564Z,-0.7
2023-01-26T06:07:01.170Z,-0.8
2023-01-26T06:08:00.799Z,-0.7
2023-01-26T06:09:00.354Z,-0.7
2023-01-26T06:10:00.945Z,-0.7
2023-01-26T06:11:00.550Z,-0.7
2023-01-26T06:12:01.125Z,-0.7
2023-01-26T06:13:00.737Z,-0.7
2023-01-26T06:14:00.291Z,-0.7
2023-01-26T06:15:00.873Z,-0.7
2023-01-26T06:16:00.463Z,-0.7
2023-01-26T06:17:01.154Z,-0.6
2023-01-26T06:18:00.766Z,-0.7
2023-01-26T06:19:00.297Z,-0.7
2023-01-26T06:20:00.933Z,-0.6
2023-01-26T06:21:00.527Z,-0.6
2023-01-26T06:22:01.115Z,-0.7
2023-01-26T06:23:00.745Z,-0.7
2023-01-26T06:24:00.337Z,-0.8
2023-01-26T06:25:00.904Z,-0.7
2023-01-26T06:26:00.494Z,-0.7
2023-01-26T06:27:01.095Z,-0.6
2023-01-26T06:28:00.692Z,-0.6
2023-01-26T06:29:01.275Z,-0.7
2023-01-26T06:30:00.914Z,-0.7
2023-01-26T06:31:00.612Z,-0.7
2023-01-26T06:32:01.088Z,-0.7
2023-01-26T06:33:00.679Z,-0.7
2023-01-26T06:34:01.287Z,-0.7
2023-01-26T06:35:00.903Z,-0.7
2023-01-26T06:36:00.485Z,-0.7
2023-01-26T06:37:01.075Z,-0.7
2023-01-26T06:38:00.723Z,-0.6
2023-01-26T06:39:01.238Z,-0.6
2023-01-26T06:40:00.851Z,-0.6
2023-01-26T06:41:00.442Z,-0.6
2023-01-26T06:42:01.013Z,-0.6
2023-01-26T06:43:00.613Z,-0.6
2023-01-26T06:44:01.196Z,-0.6
2023-01-26T06:45:00.816Z,-0.6
2023-01-26T06:46:00.418Z,-0.6
2023-01-26T06:47:00.953Z,-0.6
2023-01-26T06:48:00.547Z,-0.6
2023-01-26T06:49:01.120Z,-0.6
2023-01-26T06:50:00.755Z,-0.5
2023-01-26T06:51:00.298Z,-0.5
2023-01-26T06:52:00.891Z,-0.6
2023-01-26T06:53:00.517Z,-0.6
2023-01-26T06:54:01.087Z,-0.6
2023-01-26T06:55:00.763Z,-0.6
2023-01-26T06:56:00.326Z,-0.5
2023-01-26T06:57:00.920Z,-0.5
2023-01-26T06:58:00.516Z,-0.4
2023-01-26T06:59:01.099Z,-0.5
2023-01-26T07:00:00.711Z,-0.4
2023-01-26T07:01:01.297Z,-0.5
2023-01-26T07:02:00.890Z,-0.5
2023-01-26T07:03:00.476Z,-0.5
2023-01-26T07:04:01.061Z,-0.5
2023-01-26T07:05:00.679Z,-0.5
2023-01-26T07:06:01.261Z,-0.5
2023-01-26T07:07:00.858Z,-0.5
2023-01-26T07:08:00.448Z,-0.6
2023-01-26T07:09:01.098Z,-0.5
2023-01-26T07:10:00.678Z,-0.5
2023-01-26T07:11:01.250Z,-0.6
2023-01-26T07:12:00.851Z,-0.5
2023-01-26T07:13:00.473Z,-0.5
2023-01-26T07:14:01.074Z,-0.5
2023-01-26T07:15:00.685Z,-0.5
2023-01-26T07:16:01.329Z,-0.5
2023-01-26T07:17:00.952Z,-0.5
2023-01-26T07:18:00.497Z,-0.5
2023-01-26T07:19:01.085Z,-0.4
2023-01-26T07:20:00.687Z,-0.4
2023-01-26T07:21:01.277Z,-0.3
2023-01-26T07:22:00.895Z,-0.4
2023-01-26T07:23:00.508Z,-0.4
2023-01-26T07:24:01.140Z,-0.5
2023-01-26T07:25:00.731Z,-0.5
2023-01-26T07:26:00.328Z,-0.5
2023-01-26T07:27:00.903Z,-0.4
2023-01-26T07:28:00.490Z,-0.3
2023-01-26T07:29:01.063Z,-0.3
2023-01-26T07:30:00.651Z,-0.4
2023-01-26T07:31:01.281Z,-0.3
2023-01-26T07:32:00.988Z,-0.2
2023-01-26T07:33:00.479Z,-0.2
2023-01-26T07:34:01.054Z,-0.3
2023-01-26T07:35:00.646Z,-0.2
2023-01-26T07:36:01.221Z,-0.2
2023-01-26T07:37:00.832Z,-0.3
2023-01-26T07:38:00.462Z,-0.3
2023-01-26T07:39:01.058Z,-0.3
2023-01-26T07:40:00.662Z,-0.3
2023-01-26T07:41:01.221Z,-0.3
2023-01-26T07:42:00.846Z,-0.4
2023-01-26T07:43:00.440Z,-0.3
2023-01-26T07:44:01.051Z,-0.2
2023-01-26T07:45:00.656Z,-0.2
2023-01-26T07:46:01.240Z,-0.2
2023-01-26T07:47:00.894Z,-0.3
2023-01-26T07:48:00.514Z,-0.3
2023-01-26T07:49:01.054Z,-0.3
2023-01-26T07:50:00.644Z,-0.3
2023-01-26T07:51:01.240Z,-0.3
2023-01-26T07:52:01.647Z,-0.2
2023-01-26T07:53:00.950Z,-0.4
2023-01-26T07:54:01.068Z,-0.4
2023-01-26T07:55:00.655Z,-0.4
2023-01-26T07:56:01.240Z,-0.3
2023-01-26T07:57:00.850Z,-0.4
2023-01-26T07:58:00.442Z,-0.3
2023-01-26T07:59:03.554Z,-0.3
2023-01-26T08:00:00.575Z,-0.3
2023-01-26T08:01:01.180Z,-0.3
2023-01-26T08:02:00.838Z,-0.4
2023-01-26T08:03:00.445Z,-0.3
2023-01-26T08:04:00.955Z,-0.3
2023-01-26T08:05:00.565Z,-0.3
2023-01-26T08:06:01.138Z,-0.3
2023-01-26T08:07:00.769Z,-0.2
2023-01-26T08:08:00.348Z,-0.3
2023-01-26T08:09:00.933Z,-0.3
2023-01-26T08:10:00.637Z,-0.3
2023-01-26T08:11:01.134Z,-0.3
2023-01-26T08:12:00.720Z,-0.3
2023-01-26T08:13:00.305Z,-0.2
2023-01-26T08:14:00.894Z,-0.2
2023-01-26T08:15:00.486Z,-0.2
2023-01-26T08:16:01.073Z,-0.2
2023-01-26T08:17:00.677Z,-0.2
2023-01-26T08:18:01.261Z,-0.2
2023-01-26T08:19:00.851Z,-0.2
2023-01-26T08:20:00.454Z,-0.2
2023-01-26T08:21:01.046Z,-0.2
2023-01-26T08:22:00.636Z,-0.2
2023-01-26T08:23:01.219Z,-0.2
2023-01-26T08:24:00.865Z,-0.2
2023-01-26T08:25:00.504Z,-0.1
2023-01-26T08:26:01.185Z,-0.2
2023-01-26T08:27:00.691Z,-0.2
2023-01-26T08:28:01.281Z,-0.2
2023-01-26T08:29:00.883Z,-0.2
2023-01-26T08:30:00.469Z,-0.2
2023-01-26T08:31:01.120Z,-0.2
2023-01-26T08:32:00.788Z,-0.2
2023-01-26T08:33:01.295Z,-0.2
2023-01-26T08:34:00.881Z,-0.1
2023-01-26T08:35:00.469Z,-0.1
2023-01-26T08:36:01.045Z,-0.1
2023-01-26T08:37:00.654Z,-0.1
2023-01-26T08:38:01.236Z,-0.1
2023-01-26T08:39:00.832Z,-0.1
2023-01-26T08:40:00.476Z,-0.1
2023-01-26T08:41:01.004Z,0
2023-01-26T08:42:00.614Z,0
2023-01-26T08:43:01.177Z,-0.1
2023-01-26T08:44:00.777Z,0
2023-01-26T08:45:00.347Z,0
2023-01-26T08:46:01.102Z,-0.1
2023-01-26T08:47:00.563Z,-0.1
2023-01-26T08:48:01.157Z,-0.1
2023-01-26T08:49:00.745Z,0
2023-01-26T08:50:00.318Z,-0.1
2023-01-26T08:51:00.887Z,0
2023-01-26T08:52:00.483Z,-0.1
2023-01-26T08:53:01.076Z,-0.1
2023-01-26T08:54:00.664Z,-0.1
2023-01-26T08:55:01.239Z,-0.1
2023-01-26T08:56:00.833Z,0
2023-01-26T08:57:00.464Z,0
2023-01-26T08:58:01.078Z,0
2023-01-26T08:59:00.711Z,0
2023-01-26T09:00:01.327Z,0
2023-01-26T09:01:01.009Z,0
2023-01-26T09:02:00.604Z,0
2023-01-26T09:03:01.316Z,0.1
2023-01-26T09:04:00.737Z,0.1
2023-01-26T09:05:00.328Z,0.1
2023-01-26T09:06:00.920Z,0.1
2023-01-26T09:07:00.508Z,0.1
2023-01-26T09:08:01.124Z,0.1
2023-01-26T09:09:00.713Z,0.1
2023-01-26T09:10:00.299Z,0.1
2023-01-26T09:11:00.891Z,0.1
2023-01-26T09:12:00.481Z,0.2
2023-01-26T09:13:01.130Z,0.1
2023-01-26T09:14:00.749Z,0.1
2023-01-26T09:15:00.299Z,0.1
2023-01-26T09:16:00.871Z,0.1
2023-01-26T09:17:00.462Z,0.1
2023-01-26T09:18:01.305Z,0
2023-01-26T09:19:00.721Z,0
2023-01-26T09:20:00.289Z,0.1
2023-01-26T09:21:00.866Z,0.2
2023-01-26T09:22:00.457Z,0.3
2023-01-26T09:23:01.153Z,0.3
2023-01-26T09:24:00.776Z,0.3
2023-01-26T09:25:01.276Z,0.3
2023-01-26T09:26:00.871Z,0.3
2023-01-26T09:27:00.463Z,0.2
2023-01-26T09:28:02.037Z,0.3
2023-01-26T09:29:00.661Z,0.3
2023-01-26T09:30:01.298Z,0.3
2023-01-26T09:31:00.987Z,0.4
2023-01-26T09:32:00.575Z,0.3
2023-01-26T09:33:01.152Z,0.3
2023-01-26T09:34:00.708Z,0.3
2023-01-26T09:35:00.306Z,0.3
2023-01-26T09:36:00.865Z,0.3
2023-01-26T09:37:00.450Z,0.2
2023-01-26T09:38:01.049Z,0.2
2023-01-26T09:39:00.656Z,0.2
2023-01-26T09:40:01.259Z,0.2
2023-01-26T09:41:00.845Z,0.2
2023-01-26T09:42:00.439Z,0.2
2023-01-26T09:43:01.099Z,0.2
2023-01-26T09:44:00.692Z,0.3
2023-01-26T09:45:01.244Z,0.3
2023-01-26T09:46:00.917Z,0.3
2023-01-26T09:47:00.497Z,0.3
2023-01-26T09:48:01.063Z,0.3
2023-01-26T09:49:00.666Z,0.4
2023-01-26T09:50:01.271Z,0.3
2023-01-26T09:51:00.856Z,0.5
2023-01-26T09:52:00.846Z,0.5
2023-01-26T09:53:01.043Z,0.5
2023-01-26T09:54:00.699Z,0.5
2023-01-26T09:55:01.269Z,0.5
2023-01-26T09:56:00.860Z,0.4
2023-01-26T09:57:00.445Z,0.5
2023-01-26T09:58:01.024Z,0.5
2023-01-26T09:59:00.634Z,0.5
2023-01-26T10:00:01.225Z,0.5
2023-01-26T10:01:00.836Z,0.5
2023-01-26T10:02:00.453Z,0.3
2023-01-26T10:03:01.115Z,0.3
2023-01-26T10:04:00.672Z,0.4
2023-01-26T10:05:01.239Z,0.4
2023-01-26T10:06:00.847Z,0.5
2023-01-26T10:07:00.446Z,0.4
2023-01-26T10:08:01.030Z,0.4
2023-01-26T10:09:00.637Z,0.4
2023-01-26T10:10:01.193Z,0.4
2023-01-26T10:11:00.798Z,0.4
2023-01-26T10:12:00.350Z,0.4
2023-01-26T10:13:00.937Z,0.5
2023-01-26T10:14:00.535Z,0.6
2023-01-26T10:15:01.110Z,0.6
2023-01-26T10:16:00.737Z,0.7
2023-01-26T10:17:01.271Z,0.6
2023-01-26T10:18:00.879Z,0.4
2023-01-26T10:19:00.503Z,0.4
2023-01-26T10:20:01.050Z,0.4
2023-01-26T10:21:00.670Z,0.4
2023-01-26T10:22:01.247Z,0.4
2023-01-26T10:23:00.865Z,0.3
2023-01-26T10:24:00.534Z,0.4
2023-01-26T10:25:01.036Z,0.5
2023-01-26T10:26:00.647Z,0.5
2023-01-26T10:27:01.231Z,0.5
2023-01-26T10:28:00.841Z,0.6
2023-01-26T10:29:00.438Z,0.5
2023-01-26T10:30:01.037Z,0.6
2023-01-26T10:31:00.815Z,0.6
2023-01-26T10:32:01.284Z,0.6
2023-01-26T10:33:00.974Z,0.7
2023-01-26T10:34:00.535Z,0.7
2023-01-26T10:35:01.081Z,0.7
2023-01-26T10:36:00.668Z,0.7
2023-01-26T10:37:01.274Z,0.7
2023-01-26T10:38:00.864Z,0.8
2023-01-26T10:39:00.451Z,0.8
2023-01-26T10:40:01.033Z,0.8
2023-01-26T10:41:00.672Z,0.7
2023-01-26T10:42:01.236Z,0.7
2023-01-26T10:43:00.822Z,0.6
2023-01-26T10:44:00.416Z,0.7
2023-01-26T10:45:01.002Z,0.7
2023-01-26T10:46:00.588Z,0.8
2023-01-26T10:47:01.192Z,0.8
2023-01-26T10:48:00.786Z,0.9
2023-01-26T10:49:00.384Z,0.8
2023-01-26T10:50:00.979Z,0.9
2023-01-26T10:51:02.367Z,0.9
2023-01-26T10:52:01.043Z,0.9
2023-01-26T10:53:00.683Z,0.9
2023-01-26T10:54:01.219Z,0.8
2023-01-26T10:55:00.806Z,0.8
2023-01-26T10:56:00.399Z,0.9
2023-01-26T10:57:00.994Z,1
2023-01-26T10:58:00.584Z,0.8
2023-01-26T10:59:01.166Z,0.8
2023-01-26T11:00:00.761Z,0.8
2023-01-26T11:01:00.343Z,0.9
2023-01-26T11:02:00.963Z,0.9
2023-01-26T11:03:00.608Z,0.8
2023-01-26T11:04:01.153Z,0.8
2023-01-26T11:05:00.758Z,0.8
2023-01-26T11:06:00.354Z,0.7
2023-01-26T11:07:00.922Z,0.8
2023-01-26T11:08:00.621Z,0.8
2023-01-26T11:09:01.092Z,0.7
2023-01-26T11:10:00.677Z,0.7
2023-01-26T11:11:01.264Z,0.7
2023-01-26T11:12:00.880Z,0.7
2023-01-26T11:13:00.487Z,0.8
2023-01-26T11:14:01.050Z,0.9
2023-01-26T11:15:00.645Z,0.9
2023-01-26T11:16:01.298Z,0.9
2023-01-26T11:17:00.917Z,0.8
2023-01-26T11:18:00.480Z,0.8
2023-01-26T11:19:01.055Z,0.8
2023-01-26T11:20:00.647Z,0.8
2023-01-26T11:21:01.217Z,0.7
2023-01-26T11:22:00.826Z,0.8
2023-01-26T11:23:00.422Z,0.8
2023-01-26T11:24:01.065Z,0.8
2023-01-26T11:25:00.657Z,0.7
2023-01-26T11:26:01.228Z,0.8
2023-01-26T11:27:00.821Z,0.7
2023-01-26T11:28:00.444Z,0.7
2023-01-26T11:29:01.039Z,0.7
2023-01-26T11:30:00.630Z,0.8
2023-01-26T11:31:01.276Z,0.8
2023-01-26T11:32:00.888Z,0.8
2023-01-26T11:33:00.465Z,0.8
2023-01-26T11:34:01.053Z,0.8
2023-01-26T11:35:00.651Z,0.9
2023-01-26T11:36:01.235Z,0.8
2023-01-26T11:37:00.829Z,0.8
2023-01-26T11:38:00.450Z,0.7
2023-01-26T11:39:01.034Z,0.8
2023-01-26T11:40:00.629Z,0.8
2023-01-26T11:41:01.268Z,0.8
2023-01-26T11:42:00.860Z,0.8
2023-01-26T11:43:00.449Z,0.7
2023-01-26T11:44:01.045Z,0.7
2023-01-26T11:45:00.662Z,0.6
2023-01-26T11:46:01.295Z,0.6
2023-01-26T11:47:00.944Z,0.6
2023-01-26T11:48:00.454Z,0.7
2023-01-26T11:49:01.050Z,0.8
2023-01-26T11:50:00.675Z,0.8
2023-01-26T11:51:01.225Z,0.8
2023-01-26T11:52:00.814Z,0.8
2023-01-26T11:53:00.409Z,0.9
2023-01-26T11:54:01.000Z,0.8
2023-01-26T11:55:00.624Z,0.6
2023-01-26T11:56:01.167Z,0.7
2023-01-26T11:57:00.778Z,0.6
2023-01-26T11:58:00.349Z,0.6
2023-01-26T11:59:00.936Z,0.7
2023-01-26T12:00:00.573Z,0.7
2023-01-26T12:01:01.116Z,0.7
2023-01-26T12:02:00.770Z,0.6
2023-01-26T12:03:00.333Z,0.6
2023-01-26T12:04:00.871Z,0.6
2023-01-26T12:05:00.491Z,0.6
2023-01-26T12:06:01.057Z,0.6
2023-01-26T12:07:00.647Z,0.7
2023-01-26T12:08:01.228Z,0.8
2023-01-26T12:09:00.841Z,0.8
2023-01-26T12:10:00.458Z,0.8
2023-01-26T12:11:01.018Z,0.8
2023-01-26T12:12:00.605Z,0.8
2023-01-26T12:13:01.191Z,0.7
2023-01-26T12:14:00.798Z,0.7
2023-01-26T12:15:00.365Z,0.7
2023-01-26T12:16:00.961Z,0.8
2023-01-26T12:17:15.834Z,0.8
2023-01-26T12:18:01.091Z,0.8
2023-01-26T12:19:10.514Z,0.8
2023-01-26T12:20:01.254Z,0.8
2023-01-26T12:21:00.855Z,0.8
2023-01-26T12:22:00.511Z,0.8
2023-01-26T12:23:01.023Z,0.8
2023-01-26T12:24:00.630Z,0.8
2023-01-26T12:25:18.422Z,0.9
2023-01-26T12:26:00.808Z,0.9
2023-01-26T12:27:00.420Z,0.9
2023-01-26T12:28:01.003Z,1
2023-01-26T12:29:00.593Z,0.9
2023-01-26T12:30:01.200Z,1
2023-01-26T12:31:00.946Z,1
2023-01-26T12:32:00.396Z,0.9
2023-01-26T12:33:00.973Z,0.9
2023-01-26T12:34:00.570Z,0.9
2023-01-26T12:35:01.179Z,0.9
2023-01-26T12:36:00.794Z,0.9
2023-01-26T12:37:00.357Z,0.9
2023-01-26T12:38:12.306Z,1
2023-01-26T12:39:00.484Z,0.9
2023-01-26T12:40:01.111Z,0.9
2023-01-26T12:41:00.742Z,1
2023-01-26T12:42:00.381Z,1
2023-01-26T12:43:00.881Z,1.1
2023-01-26T12:44:00.499Z,1.1
2023-01-26T12:45:01.074Z,1.1
2023-01-26T12:46:00.979Z,1.1
2023-01-26T12:47:01.265Z,1.1
2023-01-26T12:48:00.866Z,1.2
2023-01-26T12:49:00.452Z,1.1
2023-01-26T12:50:01.111Z,1.1
2023-01-26T12:51:00.701Z,1.1
2023-01-26T12:52:00.289Z,1.1
2023-01-26T12:53:00.852Z,1.1
2023-01-26T12:54:00.446Z,1.1
2023-01-26T12:55:01.031Z,1.1
2023-01-26T12:56:00.620Z,1.1
2023-01-26T12:57:01.218Z,1
2023-01-26T12:58:00.835Z,1.1
2023-01-26T12:59:00.431Z,1.2
2023-01-26T13:00:01.018Z,1.2
2023-01-26T13:01:00.731Z,1.2
2023-01-26T13:02:01.206Z,1.1
2023-01-26T13:03:00.798Z,1.1
2023-01-26T13:04:00.385Z,1.1
2023-01-26T13:05:00.969Z,1.1
2023-01-26T13:06:00.565Z,1.1
2023-01-26T13:07:01.158Z,1.2
2023-01-26T13:08:00.772Z,1.1
2023-01-26T13:09:00.346Z,1.2
2023-01-26T13:10:00.927Z,1.2
2023-01-26T13:11:00.523Z,1.2
2023-01-26T13:12:01.115Z,1.2
2023-01-26T13:13:00.756Z,1.1
2023-01-26T13:14:00.342Z,1.1
2023-01-26T13:15:00.900Z,1.2
2023-01-26T13:16:00.514Z,1.2
2023-01-26T13:17:01.061Z,1.2
2023-01-26T13:18:00.677Z,1.1
2023-01-26T13:19:01.237Z,1.2
2023-01-26T13:20:00.832Z,1.2
2023-01-26T13:21:00.434Z,1.2
2023-01-26T13:22:01.021Z,1.1
2023-01-26T13:23:00.635Z,1.2
2023-01-26T13:24:01.224Z,1.1
2023-01-26T13:25:00.834Z,1.1
2023-01-26T13:26:09.513Z,1.1
2023-01-26T13:27:00.973Z,1.2
2023-01-26T13:28:00.586Z,1.2
2023-01-26T13:29:02.701Z,1.3
2023-01-26T13:30:00.415Z,1.3
2023-01-26T13:31:01.117Z,1.3
2023-01-26T13:32:00.659Z,1.2
2023-01-26T13:33:01.265Z,1.3